createdAt,value
2022-08-14T00:00:36.844Z,98098.47
2022-08-14T00:03:40.723Z,98093.72
2022-08-14T00:06:42.951Z,98087.22
2022-08-14T00:10:01.390Z,98081.91
2022-08-14T00:13:10.366Z,98090.13
2022-08-14T00:16:41.341Z,98089.63
2022-08-14T00:19:36.656Z,98092.69
2022-08-14T00:22:57.235Z,98092.34
2022-08-14T00:26:06.792Z,98087.22
2022-08-14T00:29:14.530Z,98089.72
2022-08-14T00:32:52.652Z,98089.97
2022-08-14T00:36:33.911Z,98075.16
2022-08-14T00:38:59.265Z,98056.06
2022-08-14T00:42:02.241Z,98055.31
2022-08-14T00:45:06.153Z,98060.69
2022-08-14T00:48:07.667Z,98072.00
2022-08-14T00:51:09.867Z,98075.88
2022-08-14T00:54:21.037Z,98073.09
2022-08-14T00:57:28.145Z,98064.78
2022-08-14T01:00:37.599Z,98062.78
2022-08-14T01:03:44.851Z,98062.91
2022-08-14T01:06:46.836Z,98058.44
2022-08-14T01:09:58.626Z,98057.06
2022-08-14T01:13:00.215Z,98053.94
2022-08-14T01:16:05.645Z,98054.34
2022-08-14T01:19:27.584Z,98046.41
2022-08-14T01:22:29.618Z,98046.13
2022-08-14T01:25:31.130Z,98038.91
2022-08-14T01:28:54.183Z,98038.09
2022-08-14T01:32:00.345Z,98027.09
2022-08-14T01:35:17.636Z,98025.03
2022-08-14T01:38:24.116Z,98028.41
2022-08-14T01:41:30.175Z,98019.06
2022-08-14T01:44:34.544Z,98021.59
2022-08-14T01:47:37.144Z,98028.44
2022-08-14T01:50:39.308Z,98024.53
2022-08-14T01:53:47.883Z,98018.44
2022-08-14T01:56:56.863Z,98009.19
2022-08-14T01:59:58.773Z,98002.31
2022-08-14T02:03:00.444Z,98001.94
2022-08-14T02:06:04.153Z,97991.16
2022-08-14T02:09:24.227Z,97985.63
2022-08-14T02:12:29.234Z,97988.16
2022-08-14T02:15:31.045Z,97981.97
2022-08-14T02:18:33.428Z,97977.84
2022-08-14T02:21:43.346Z,97979.25
2022-08-14T02:24:47.867Z,97977.56
2022-08-14T02:28:24.521Z,97971.41
2022-08-14T02:31:14.886Z,97962.41
2022-08-14T02:34:22.285Z,97966.03
2022-08-14T02:37:46.438Z,97957.19
2022-08-14T02:40:49.222Z,97954.94
2022-08-14T02:43:51.256Z,97956.91
2022-08-14T02:46:53.886Z,97955.28
2022-08-14T02:50:03.460Z,97949.66
2022-08-14T02:53:05.825Z,97947.53
2022-08-14T02:56:30.770Z,97940.63
2022-08-14T02:59:33.655Z,97943.84
2022-08-14T03:02:56.363Z,97932.00
2022-08-14T03:05:57.783Z,97936.38
2022-08-14T03:08:59.924Z,97928.72
2022-08-14T03:12:02.565Z,97930.44
2022-08-14T03:15:16.275Z,97925.19
2022-08-14T03:18:31.907Z,97923.38
2022-08-14T03:21:34.473Z,97914.97
2022-08-14T03:24:36.681Z,97914.25
2022-08-14T03:27:48.431Z,97914.66
2022-08-14T03:31:00.481Z,97902.16
2022-08-14T03:34:03.214Z,97905.06
2022-08-14T03:37:39.185Z,97899.81
2022-08-14T03:40:26.691Z,97897.63
2022-08-14T03:43:32.611Z,97898.63
2022-08-14T03:46:52.405Z,97885.66
2022-08-14T03:49:56.422Z,97884.63
2022-08-14T03:53:01.536Z,97886.28
2022-08-14T03:56:04.709Z,97878.69
2022-08-14T03:59:17.851Z,97874.19
2022-08-14T04:02:37.227Z,97881.53
2022-08-14T04:05:43.387Z,97878.19
2022-08-14T04:08:52.333Z,97894.53
2022-08-14T04:11:54.396Z,97898.28
2022-08-14T04:14:58.438Z,97907.16
2022-08-14T04:18:05.715Z,97913.41
2022-08-14T04:21:10.307Z,97898.34
2022-08-14T04:24:14.369Z,97904.59
2022-08-14T04:27:19.186Z,97891.53
2022-08-14T04:30:24.185Z,97889.91
2022-08-14T04:33:33.109Z,97887.47
2022-08-14T04:36:55.019Z,97884.25
2022-08-14T04:40:15.360Z,97877.09
2022-08-14T04:43:38.487Z,97872.72
2022-08-14T04:46:56.789Z,97870.72
2022-08-14T04:49:59.261Z,97871.25
2022-08-14T04:53:04.888Z,97872.16
2022-08-14T04:56:30.065Z,97869.38
2022-08-14T04:59:28.315Z,97871.97
2022-08-14T05:02:31.541Z,97878.84
2022-08-14T05:05:36.198Z,97877.75
2022-08-14T05:08:56.951Z,97886.28
2022-08-14T05:13:12.906Z,97886.34
2022-08-14T05:15:22.562Z,97875.63
2022-08-14T05:18:37.157Z,97876.41
2022-08-14T05:21:57.783Z,97871.94
2022-08-14T05:25:04.120Z,97886.75
2022-08-14T05:28:21.749Z,97881.28
2022-08-14T05:31:24.103Z,97879.31
2022-08-14T05:34:41.014Z,97872.72
2022-08-14T05:37:47.417Z,97861.91
2022-08-14T05:40:49.372Z,97855.44
2022-08-14T05:43:51.339Z,97862.00
2022-08-14T05:46:52.859Z,97864.28
2022-08-14T05:49:59.672Z,97855.38
2022-08-14T05:53:01.416Z,97841.69
2022-08-14T05:56:03.369Z,97845.38
2022-08-14T05:59:05.604Z,97832.38
2022-08-14T06:02:10.010Z,97828.84
2022-08-14T06:05:12.158Z,97821.94
2022-08-14T06:08:31.391Z,97826.50
2022-08-14T06:11:38.081Z,97801.25
2022-08-14T06:14:39.588Z,97797.13
2022-08-14T06:17:46.359Z,97788.50
2022-08-14T06:20:57.320Z,97773.81
2022-08-14T06:23:59.540Z,97769.66
2022-08-14T06:27:04.267Z,97761.28
2022-08-14T06:30:08.237Z,97759.97
2022-08-14T06:33:12.953Z,97749.75
2022-08-14T06:36:20.325Z,97731.59
2022-08-14T06:39:36.648Z,97731.94
2022-08-14T06:42:39.923Z,97742.47
2022-08-14T06:45:43.573Z,97737.56
2022-08-14T06:48:52.216Z,97747.75
2022-08-14T06:51:56.752Z,97756.28
2022-08-14T06:54:58.336Z,97759.59
2022-08-14T06:58:00.752Z,97759.16
2022-08-14T07:01:27.734Z,97758.69
2022-08-14T07:04:48.170Z,97761.53
2022-08-14T07:07:49.674Z,97750.56
2022-08-14T07:10:54.280Z,97719.75
2022-08-14T07:13:57.761Z,97697.78
2022-08-14T07:16:59.237Z,97689.38
2022-08-14T07:20:02.851Z,97685.69
2022-08-14T07:23:08.553Z,97694.56
2022-08-14T07:26:10.998Z,97684.19
2022-08-14T07:29:14.911Z,97678.41
2022-08-14T07:32:22.220Z,97684.44
2022-08-14T07:35:42.803Z,97674.78
2022-08-14T07:38:58.132Z,97689.69
2022-08-14T07:41:59.665Z,97690.53
2022-08-14T07:45:03.523Z,97684.69
2022-08-14T07:48:06.247Z,97685.28
2022-08-14T07:51:11.432Z,97666.97
2022-08-14T07:54:16.374Z,97668.34
2022-08-14T07:57:22.471Z,97664.59
2022-08-14T08:00:31.263Z,97661.03
2022-08-14T08:03:35.909Z,97663.22
2022-08-14T08:06:38.244Z,97678.06
2022-08-14T08:09:47.440Z,97666.59
2022-08-14T08:12:55.539Z,97676.09
2022-08-14T08:15:57.644Z,97671.72
2022-08-14T08:19:05.464Z,97681.03
2022-08-14T08:22:14.860Z,97668.13
2022-08-14T08:25:18.022Z,97647.94
2022-08-14T08:28:25.167Z,97654.78
2022-08-14T08:31:32.670Z,97672.16
2022-08-14T08:34:45.456Z,97681.06
2022-08-14T08:37:48.308Z,97688.69
2022-08-14T08:40:56.889Z,97680.31
2022-08-14T08:44:05.536Z,97674.97
2022-08-14T08:47:08.078Z,97663.56
2022-08-14T08:53:38.802Z,97630.03
2022-08-14T08:56:48.099Z,97624.66
2022-08-14T08:59:55.169Z,97615.75
2022-08-14T09:03:03.188Z,97614.66
2022-08-14T09:06:53.988Z,97632.06
2022-08-14T09:09:33.221Z,97617.31
2022-08-14T09:12:51.665Z,97612.66
2022-08-14T09:15:54.044Z,97602.72
2022-08-14T09:18:56.690Z,97588.88
2022-08-14T09:21:59.047Z,97589.78
2022-08-14T09:25:00.555Z,97590.88
2022-08-14T09:28:03.251Z,97601.56
2022-08-14T09:31:11.940Z,97597.53
2022-08-14T09:34:39.461Z,97597.19
2022-08-14T09:38:15.424Z,97587.06
2022-08-14T09:41:27.052Z,97569.81
2022-08-14T09:44:57.425Z,97557.09
2022-08-14T09:48:01.863Z,97543.88
2022-08-14T09:54:19.693Z,97546.31
2022-08-14T09:57:27.625Z,97547.22
2022-08-14T10:00:52.770Z,97530.94
2022-08-14T10:03:56.292Z,97538.84
2022-08-14T10:07:01.279Z,97531.34
2022-08-14T10:10:03.884Z,97519.41
2022-08-14T10:13:25.514Z,97521.84
2022-08-14T10:16:33.264Z,97512.56
2022-08-14T10:19:36.511Z,97512.44
2022-08-14T10:23:21.694Z,97498.97
2022-08-14T10:26:05.337Z,97515.03
2022-08-14T10:29:20.275Z,97511.84
2022-08-14T10:32:29.207Z,97508.38
2022-08-14T10:35:47.823Z,97503.47
2022-08-14T10:38:56.549Z,97506.38
2022-08-14T10:42:16.501Z,97495.56
2022-08-14T10:45:21.893Z,97500.91
2022-08-14T10:48:37.107Z,97481.06
2022-08-14T10:51:43.601Z,97478.97
2022-08-14T10:54:47.402Z,97485.63
2022-08-14T10:57:50.567Z,97484.59
2022-08-14T11:00:57.830Z,97496.78
2022-08-14T11:03:59.453Z,97484.44
2022-08-14T11:07:01.386Z,97487.53
2022-08-14T11:10:09.317Z,97466.81
2022-08-14T11:13:17.429Z,97463.03
2022-08-14T11:16:19.621Z,97469.09
2022-08-14T11:19:21.734Z,97465.13
2022-08-14T11:22:56.153Z,97465.25
2022-08-14T11:25:52.901Z,97455.16
2022-08-14T11:28:56.784Z,97450.59
2022-08-14T11:32:01.450Z,97454.66
2022-08-14T11:35:03.832Z,97463.09
2022-08-14T11:38:07.411Z,97502.50
2022-08-14T11:41:09.655Z,97513.84
2022-08-14T11:44:17.531Z,97509.00
2022-08-14T11:47:22.728Z,97501.34
2022-08-14T11:50:37.357Z,97487.66
2022-08-14T11:53:42.278Z,97488.63
2022-08-14T11:56:45.665Z,97477.66
2022-08-14T11:59:47.819Z,97486.91
2022-08-14T12:03:02.735Z,97492.00
2022-08-14T12:06:29.439Z,97478.63
2022-08-14T12:09:33.628Z,97469.03
2022-08-14T12:12:36.644Z,97474.13
2022-08-14T12:15:38.185Z,97463.84
2022-08-14T12:18:48.492Z,97460.78
2022-08-14T12:21:51.754Z,97452.88
2022-08-14T12:24:55.203Z,97450.47
2022-08-14T12:27:59.168Z,97448.63
2022-08-14T12:31:01.329Z,97450.81
2022-08-14T12:34:10.268Z,97447.88
2022-08-14T12:37:11.993Z,97436.75
2022-08-14T12:40:14.281Z,97434.34
2022-08-14T12:43:21.756Z,97435.59
2022-08-14T12:46:35.230Z,97428.78
2022-08-14T12:49:37.388Z,97438.84
2022-08-14T12:52:53.940Z,97439.00
2022-08-14T12:56:22.417Z,97432.94
2022-08-14T12:59:29.790Z,97432.94
2022-08-14T13:02:37.448Z,97437.47
2022-08-14T13:05:38.993Z,97427.38
2022-08-14T13:08:52.672Z,97424.81
2022-08-14T13:11:58.782Z,97430.38
2022-08-14T13:15:17.854Z,97435.25
2022-08-14T13:18:21.064Z,97444.31
2022-08-14T13:21:26.326Z,97432.13
2022-08-14T13:24:28.093Z,97442.53
2022-08-14T13:27:29.604Z,97444.13
2022-08-14T13:30:33.804Z,97438.56
2022-08-14T13:33:35.868Z,97441.63
2022-08-14T13:36:54.899Z,97444.03
2022-08-14T13:39:58.998Z,97444.75
2022-08-14T13:43:02.180Z,97439.78
2022-08-14T13:46:03.859Z,97435.56
2022-08-14T13:49:12.156Z,97436.34
2022-08-14T13:52:52.766Z,97429.88
2022-08-14T13:55:42.403Z,97439.06
2022-08-14T13:58:46.869Z,97442.56
2022-08-14T14:01:51.655Z,97435.66
2022-08-14T14:04:53.577Z,97445.78
2022-08-14T14:07:57.176Z,97436.75
2022-08-14T14:10:58.841Z,97440.06
2022-08-14T14:14:01.463Z,97441.06
2022-08-14T14:17:03.381Z,97434.53
2022-08-14T14:20:15.263Z,97427.41
2022-08-14T14:23:34.896Z,97421.31
2022-08-14T14:26:36.692Z,97427.56
2022-08-14T14:29:43.253Z,97415.94
2022-08-14T14:33:01.926Z,97410.34
2022-08-14T14:36:06.293Z,97403.06
2022-08-14T14:39:08.851Z,97412.56
2022-08-14T14:42:13.558Z,97403.25
2022-08-14T14:45:20.869Z,97411.91
2022-08-14T14:48:23.396Z,97405.63
2022-08-14T14:51:29.984Z,97413.75
2022-08-14T14:54:37.416Z,97432.72
2022-08-14T14:57:40.987Z,97433.22
2022-08-14T15:00:46.187Z,97441.84
2022-08-14T15:03:48.080Z,97424.50
2022-08-14T15:06:54.071Z,97415.31
2022-08-14T15:09:55.599Z,97420.47
2022-08-14T15:13:03.780Z,97433.81
2022-08-14T15:16:07.711Z,97425.28
2022-08-14T15:19:12.440Z,97439.75
2022-08-14T15:22:16.284Z,97427.78
2022-08-14T15:25:18.628Z,97424.59
2022-08-14T15:28:21.774Z,97431.25
2022-08-14T15:31:24.640Z,97440.34
2022-08-14T15:34:43.498Z,97448.22
2022-08-14T15:37:55.717Z,97438.72
2022-08-14T15:41:01.867Z,97464.94
2022-08-14T15:44:03.626Z,97464.53
2022-08-14T15:47:09.407Z,97468.63
2022-08-14T15:50:12.809Z,97468.53
2022-08-14T15:53:14.786Z,97473.09
2022-08-14T15:56:32.844Z,97478.16
2022-08-14T15:59:56.887Z,97478.31
2022-08-14T16:03:00.378Z,97464.81
2022-08-14T16:06:05.066Z,97458.16
2022-08-14T16:09:11.101Z,97466.19
2022-08-14T16:12:12.870Z,97460.84
2022-08-14T16:15:16.751Z,97461.41
2022-08-14T16:18:20.034Z,97456.47
2022-08-14T16:21:21.715Z,97471.22
2022-08-14T16:24:28.120Z,97459.06
2022-08-14T16:27:38.778Z,97464.16
2022-08-14T16:30:51.439Z,97450.91
2022-08-14T16:34:00.076Z,97465.00
2022-08-14T16:37:03.213Z,97466.28
2022-08-14T16:40:05.032Z,97473.19
2022-08-14T16:43:13.073Z,97477.34
2022-08-14T16:46:18.375Z,97479.19
2022-08-14T16:49:26.045Z,97487.16
2022-08-14T16:52:54.694Z,97496.50
2022-08-14T16:56:17.052Z,97509.47
2022-08-14T16:59:30.648Z,97514.13
2022-08-14T17:02:46.442Z,97516.47
2022-08-14T17:05:49.262Z,97521.53
2022-08-14T17:08:50.849Z,97518.44
2022-08-14T17:11:58.223Z,97515.38
2022-08-14T17:15:14.811Z,97517.09
2022-08-14T17:18:41.297Z,97528.75
2022-08-14T17:21:47.141Z,97522.94
2022-08-14T17:24:58.202Z,97520.06
2022-08-14T17:28:52.161Z,97511.22
2022-08-14T17:31:58.304Z,97543.59
2022-08-14T17:34:54.117Z,97524.31
2022-08-14T17:37:57.069Z,97519.03
2022-08-14T17:41:18.502Z,97517.19
2022-08-14T17:44:33.907Z,97522.50
2022-08-14T17:47:46.518Z,97528.09
2022-08-14T17:50:58.480Z,97520.47
2022-08-14T17:54:04.216Z,97524.00
2022-08-14T17:57:14.920Z,97527.06
2022-08-14T18:00:17.479Z,97534.75
2022-08-14T18:03:50.420Z,97542.59
2022-08-14T18:06:58.576Z,97537.75
2022-08-14T18:10:51.792Z,97544.59
2022-08-14T18:13:52.058Z,97557.38
2022-08-14T18:16:51.036Z,97549.28
2022-08-14T18:19:52.604Z,97556.81
2022-08-14T18:22:54.108Z,97552.47
2022-08-14T18:25:56.178Z,97560.88
2022-08-14T18:28:59.197Z,97561.50
2022-08-14T18:32:00.741Z,97567.34
2022-08-14T18:35:03.820Z,97555.56
2022-08-14T18:38:25.349Z,97570.16
2022-08-14T18:41:37.154Z,97571.53
2022-08-14T18:44:54.499Z,97571.63
2022-08-14T18:48:18.753Z,97576.25
2022-08-14T18:51:25.695Z,97579.31
2022-08-14T18:54:48.636Z,97601.53
2022-08-14T18:58:00.901Z,97618.38
2022-08-14T19:01:04.621Z,97622.00
2022-08-14T19:04:08.289Z,97632.59
2022-08-14T19:07:16.766Z,97635.13
2022-08-14T19:10:31.794Z,97634.88
2022-08-14T19:13:48.772Z,97633.88
2022-08-14T19:16:53.754Z,97628.16
2022-08-14T19:20:07.160Z,97621.09
2022-08-14T19:23:21.935Z,97627.56
2022-08-14T19:26:35.252Z,97628.47
2022-08-14T19:29:39.907Z,97624.78
2022-08-14T19:32:41.629Z,97611.47
2022-08-14T19:35:55.372Z,97606.81
2022-08-14T19:39:01.914Z,97599.97
2022-08-14T19:42:10.330Z,97595.31
2022-08-14T19:45:14.336Z,97604.56
2022-08-14T19:48:16.160Z,97613.94
2022-08-14T19:51:17.689Z,97617.78
2022-08-14T19:54:19.061Z,97621.59
2022-08-14T19:57:22.616Z,97620.97
2022-08-14T20:00:29.530Z,97621.78
2022-08-14T20:04:00.548Z,97628.72
2022-08-14T20:07:08.836Z,97629.16
2022-08-14T20:11:03.174Z,97627.97
2022-08-14T20:14:10.552Z,97621.88
2022-08-14T20:17:15.148Z,97631.66
2022-08-14T20:20:30.925Z,97635.47
2022-08-14T20:23:38.094Z,97634.91
2022-08-14T20:26:46.888Z,97634.72
2022-08-14T20:30:34.689Z,97638.28
2022-08-14T20:33:47.684Z,97643.22
2022-08-14T20:36:49.651Z,97645.63
2022-08-14T20:39:54.419Z,97639.72
2022-08-14T20:43:15.163Z,97640.38
2022-08-14T20:46:18.036Z,97636.59
2022-08-14T20:49:27.755Z,97640.94
2022-08-14T20:52:29.231Z,97632.34
2022-08-14T20:55:36.450Z,97633.91
2022-08-14T20:58:45.837Z,97633.19
2022-08-14T21:02:00.431Z,97621.63
2022-08-14T21:05:22.545Z,97626.66
2022-08-14T21:08:37.096Z,97623.41
2022-08-14T21:11:40.162Z,97623.97
2022-08-14T21:14:51.839Z,97627.25
2022-08-14T21:17:56.048Z,97631.53
2022-08-14T21:20:58.194Z,97633.53
2022-08-14T21:24:00.391Z,97632.03
2022-08-14T21:27:13.111Z,97642.31
2022-08-14T21:30:46.898Z,97645.03
2022-08-14T21:33:47.012Z,97651.06
2022-08-14T21:36:58.572Z,97655.72
2022-08-14T21:40:00.568Z,97646.47
2022-08-14T21:43:02.171Z,97647.22
2022-08-14T21:46:03.665Z,97642.50
2022-08-14T21:49:20.562Z,97650.41
2022-08-14T21:52:49.559Z,97653.28
2022-08-14T21:55:43.650Z,97650.03
2022-08-14T21:58:52.612Z,97651.84
2022-08-14T22:02:00.195Z,97649.38
2022-08-14T22:05:05.391Z,97655.53
2022-08-14T22:08:12.460Z,97667.84
2022-08-14T22:11:15.548Z,97669.59
2022-08-14T22:14:25.439Z,97664.28
2022-08-14T22:17:32.386Z,97655.94
2022-08-14T22:20:36.287Z,97655.81
2022-08-14T22:23:37.914Z,97647.97
2022-08-14T22:26:43.064Z,97645.38
2022-08-14T22:29:46.533Z,97642.94
2022-08-14T22:32:58.419Z,97641.50
2022-08-14T22:36:02.008Z,97651.06
2022-08-14T22:39:10.824Z,97649.75
2022-08-14T22:42:19.528Z,97653.72
2022-08-14T22:45:23.978Z,97650.13
2022-08-14T22:48:25.465Z,97648.31
2022-08-14T22:51:30.935Z,97652.09
2022-08-14T22:54:52.520Z,97655.31
2022-08-14T22:57:55.135Z,97652.13
2022-08-14T23:00:56.632Z,97656.09
2022-08-14T23:03:59.129Z,97661.41
2022-08-14T23:07:04.804Z,97666.03
2022-08-14T23:10:32.639Z,97663.69
2022-08-14T23:13:30.592Z,97666.72
2022-08-14T23:16:32.842Z,97672.78
2022-08-14T23:19:34.972Z,97676.94
2022-08-14T23:22:36.827Z,97668.63
2022-08-14T23:25:59.573Z,97667.66
2022-08-14T23:29:06.951Z,97670.50
2022-08-14T23:32:15.554Z,97676.28
2022-08-14T23:35:24.012Z,97670.13
2022-08-14T23:38:30.805Z,97674.41
2022-08-14T23:41:46.848Z,97680.28
2022-08-14T23:44:55.601Z,97677.56
2022-08-14T23:47:58.877Z,97673.72
2022-08-14T23:51:02.387Z,97676.03
2022-08-14T23:54:03.989Z,97679.25
2022-08-14T23:57:05.510Z,97663.50
